Open Full Screen Window  High Contrast Mode
Wind Gusting 00 knots
04
November 19, 2017 11:10 PM PST
Weather Information
Wind Direction
  080 °
Wind Speed
  04 kt (5 mph)
Wind Gust
  00 kt (0 mph)
Altimeter
30.11 in
Visibility
10 SM
Temperature
10° C
50° F
Dewpoint
08° C
46° F
Humidity
88%
1hr Rain Fall
00.00 in.
24hr Rain Fall
00.00 in.
Sky Condition
Clear
VFR

METAR KCVH 200710Z AUTO 08004KT 10SM CLR 10/08 A3011 RMK A01

*Background is not an actual portrayal of the airport.